sensor_id;sensor_type;location;lat;lon;timestamp;P1;durP1;ratioP1;P2;durP2;ratioP2
4636;SDS011;2331;48.806;9.140;2023-09-07T00:01:14;4.83;;;3.37;;
4636;SDS011;2331;48.806;9.140;2023-09-07T00:03:42;5.80;;;3.40;;
4636;SDS011;2331;48.806;9.140;2023-09-07T00:06:10;5.20;;;3.87;;
4636;SDS011;2331;48.806;9.140;2023-09-07T00:08:37;12.23;;;3.93;;
4636;SDS011;2331;48.806;9.140;2023-09-07T00:11:04;5.30;;;3.30;;
4636;SDS011;2331;48.806;9.140;2023-09-07T00:13:32;5.30;;;3.37;;
4636;SDS011;2331;48.806;9.140;2023-09-07T00:15:58;4.27;;;3.43;;
4636;SDS011;2331;48.806;9.140;2023-09-07T00:18:26;5.60;;;3.37;;
4636;SDS011;2331;48.806;9.140;2023-09-07T00:20:53;4.33;;;3.30;;
4636;SDS011;2331;48.806;9.140;2023-09-07T00:23:21;8.13;;;3.50;;
4636;SDS011;2331;48.806;9.140;2023-09-07T00:25:48;10.80;;;3.57;;
4636;SDS011;2331;48.806;9.140;2023-09-07T00:28:15;5.63;;;3.63;;
4636;SDS011;2331;48.806;9.140;2023-09-07T00:30:41;7.43;;;3.33;;
4636;SDS011;2331;48.806;9.140;2023-09-07T00:33:08;5.37;;;3.33;;
4636;SDS011;2331;48.806;9.140;2023-09-07T00:35:35;5.97;;;3.53;;
4636;SDS011;2331;48.806;9.140;2023-09-07T00:38:03;5.53;;;3.50;;
4636;SDS011;2331;48.806;9.140;2023-09-07T00:40:31;5.50;;;3.53;;
4636;SDS011;2331;48.806;9.140;2023-09-07T00:42:58;5.50;;;3.43;;
4636;SDS011;2331;48.806;9.140;2023-09-07T00:45:25;6.10;;;3.63;;
4636;SDS011;2331;48.806;9.140;2023-09-07T00:47:52;4.80;;;3.33;;
4636;SDS011;2331;48.806;9.140;2023-09-07T00:50:19;4.43;;;3.13;;
4636;SDS011;2331;48.806;9.140;2023-09-07T00:52:46;3.87;;;3.10;;
4636;SDS011;2331;48.806;9.140;2023-09-07T00:55:14;5.63;;;3.50;;
4636;SDS011;2331;48.806;9.140;2023-09-07T00:57:42;7.57;;;3.43;;
4636;SDS011;2331;48.806;9.140;2023-09-07T01:00:09;4.83;;;2.90;;
4636;SDS011;2331;48.806;9.140;2023-09-07T01:02:37;5.20;;;2.90;;
4636;SDS011;2331;48.806;9.140;2023-09-07T01:05:04;6.13;;;3.45;;
4636;SDS011;2331;48.806;9.140;2023-09-07T01:07:32;4.03;;;3.10;;
4636;SDS011;2331;48.806;9.140;2023-09-07T01:10:02;6.30;;;3.40;;
4636;SDS011;2331;48.806;9.140;2023-09-07T01:12:29;6.57;;;3.03;;
4636;SDS011;2331;48.806;9.140;2023-09-07T01:14:58;4.00;;;2.97;;
4636;SDS011;2331;48.806;9.140;2023-09-07T01:17:25;4.67;;;3.40;;
4636;SDS011;2331;48.806;9.140;2023-09-07T01:19:52;6.50;;;2.70;;
4636;SDS011;2331;48.806;9.140;2023-09-07T01:22:21;5.53;;;2.93;;
4636;SDS011;2331;48.806;9.140;2023-09-07T01:24:49;6.00;;;3.40;;
4636;SDS011;2331;48.806;9.140;2023-09-07T01:27:17;6.38;;;3.10;;
4636;SDS011;2331;48.806;9.140;2023-09-07T01:29:44;6.40;;;3.60;;
4636;SDS011;2331;48.806;9.140;2023-09-07T01:32:11;6.10;;;3.57;;
4636;SDS011;2331;48.806;9.140;2023-09-07T01:34:38;7.23;;;3.90;;
4636;SDS011;2331;48.806;9.140;2023-09-07T01:37:05;5.85;;;3.40;;
4636;SDS011;2331;48.806;9.140;2023-09-07T01:39:33;5.22;;;3.10;;
4636;SDS011;2331;48.806;9.140;2023-09-07T01:42:00;6.75;;;3.63;;
4636;SDS011;2331;48.806;9.140;2023-09-07T01:44:27;6.75;;;3.80;;
4636;SDS011;2331;48.806;9.140;2023-09-07T01:46:54;4.57;;;3.33;;
4636;SDS011;2331;48.806;9.140;2023-09-07T01:49:21;4.50;;;3.28;;
4636;SDS011;2331;48.806;9.140;2023-09-07T01:51:50;5.07;;;3.30;;
4636;SDS011;2331;48.806;9.140;2023-09-07T01:54:17;4.72;;;3.40;;
4636;SDS011;2331;48.806;9.140;2023-09-07T01:56:45;5.32;;;3.63;;
4636;SDS011;2331;48.806;9.140;2023-09-07T01:59:12;3.95;;;3.28;;
4636;SDS011;2331;48.806;9.140;2023-09-07T02:01:39;7.07;;;3.38;;
4636;SDS011;2331;48.806;9.140;2023-09-07T02:04:05;5.40;;;2.92;;
4636;SDS011;2331;48.806;9.140;2023-09-07T02:06:32;6.82;;;3.30;;
4636;SDS011;2331;48.806;9.140;2023-09-07T02:08:59;3.92;;;3.00;;
4636;SDS011;2331;48.806;9.140;2023-09-07T02:11:26;8.40;;;3.20;;
4636;SDS011;2331;48.806;9.140;2023-09-07T02:13:54;6.32;;;3.38;;
4636;SDS011;2331;48.806;9.140;2023-09-07T02:16:21;5.88;;;3.53;;
4636;SDS011;2331;48.806;9.140;2023-09-07T02:18:48;4.60;;;2.90;;
4636;SDS011;2331;48.806;9.140;2023-09-07T02:21:16;4.75;;;3.13;;
4636;SDS011;2331;48.806;9.140;2023-09-07T02:23:42;5.65;;;2.85;;
4636;SDS011;2331;48.806;9.140;2023-09-07T02:26:09;5.18;;;3.10;;
4636;SDS011;2331;48.806;9.140;2023-09-07T02:28:36;4.50;;;3.08;;
4636;SDS011;2331;48.806;9.140;2023-09-07T02:31:04;5.88;;;3.53;;
4636;SDS011;2331;48.806;9.140;2023-09-07T02:33:32;6.47;;;3.40;;
4636;SDS011;2331;48.806;9.140;2023-09-07T02:36:00;6.72;;;3.60;;
4636;SDS011;2331;48.806;9.140;2023-09-07T02:38:27;3.63;;;2.95;;
4636;SDS011;2331;48.806;9.140;2023-09-07T02:40:55;4.32;;;3.13;;
4636;SDS011;2331;48.806;9.140;2023-09-07T02:43:22;6.72;;;2.90;;
4636;SDS011;2331;48.806;9.140;2023-09-07T02:45:49;6.80;;;3.85;;
4636;SDS011;2331;48.806;9.140;2023-09-07T02:48:17;4.97;;;3.35;;
4636;SDS011;2331;48.806;9.140;2023-09-07T02:50:44;5.82;;;3.20;;
4636;SDS011;2331;48.806;9.140;2023-09-07T02:53:13;8.25;;;3.35;;
4636;SDS011;2331;48.806;9.140;2023-09-07T02:55:40;5.60;;;3.47;;
4636;SDS011;2331;48.806;9.140;2023-09-07T02:58:07;5.00;;;3.30;;
4636;SDS011;2331;48.806;9.140;2023-09-07T03:00:34;3.85;;;2.83;;
4636;SDS011;2331;48.806;9.140;2023-09-07T03:03:01;5.85;;;3.03;;
4636;SDS011;2331;48.806;9.140;2023-09-07T03:05:30;5.43;;;3.08;;
4636;SDS011;2331;48.806;9.140;2023-09-07T03:07:57;5.38;;;3.25;;
4636;SDS011;2331;48.806;9.140;2023-09-07T03:10:23;6.05;;;3.55;;
4636;SDS011;2331;48.806;9.140;2023-09-07T03:12:50;5.50;;;3.72;;
4636;SDS011;2331;48.806;9.140;2023-09-07T03:15:19;4.63;;;3.42;;
4636;SDS011;2331;48.806;9.140;2023-09-07T03:17:46;4.40;;;3.08;;
4636;SDS011;2331;48.806;9.140;2023-09-07T03:20:13;4.25;;;3.20;;
4636;SDS011;2331;48.806;9.140;2023-09-07T03:22:42;5.18;;;3.45;;
4636;SDS011;2331;48.806;9.140;2023-09-07T03:25:10;3.97;;;3.00;;
4636;SDS011;2331;48.806;9.140;2023-09-07T03:27:37;4.80;;;3.40;;
4636;SDS011;2331;48.806;9.140;2023-09-07T03:30:04;10.60;;;3.65;;
4636;SDS011;2331;48.806;9.140;2023-09-07T03:32:33;5.15;;;3.08;;
4636;SDS011;2331;48.806;9.140;2023-09-07T03:35:00;6.05;;;3.70;;
4636;SDS011;2331;48.806;9.140;2023-09-07T03:37:28;5.70;;;3.70;;
4636;SDS011;2331;48.806;9.140;2023-09-07T03:39:56;5.63;;;3.42;;
4636;SDS011;2331;48.806;9.140;2023-09-07T03:42:23;5.60;;;2.95;;
4636;SDS011;2331;48.806;9.140;2023-09-07T03:44:50;5.43;;;3.20;;
4636;SDS011;2331;48.806;9.140;2023-09-07T03:47:17;5.45;;;3.53;;
4636;SDS011;2331;48.806;9.140;2023-09-07T03:49:44;4.32;;;3.30;;
4636;SDS011;2331;48.806;9.140;2023-09-07T03:52:10;5.55;;;3.35;;
4636;SDS011;2331;48.806;9.140;2023-09-07T03:54:37;5.82;;;3.60;;
4636;SDS011;2331;48.806;9.140;2023-09-07T03:57:05;7.93;;;4.13;;
4636;SDS011;2331;48.806;9.140;2023-09-07T03:59:32;4.30;;;3.30;;
4636;SDS011;2331;48.806;9.140;2023-09-07T04:01:58;4.78;;;3.63;;
4636;SDS011;2331;48.806;9.140;2023-09-07T04:04:25;6.05;;;3.70;;
4636;SDS011;2331;48.806;9.140;2023-09-07T04:06:52;6.00;;;3.40;;
4636;SDS011;2331;48.806;9.140;2023-09-07T04:09:19;6.57;;;4.07;;
4636;SDS011;2331;48.806;9.140;2023-09-07T04:11:45;5.82;;;3.47;;
4636;SDS011;2331;48.806;9.140;2023-09-07T04:14:14;3.85;;;2.78;;
4636;SDS011;2331;48.806;9.140;2023-09-07T04:16:40;4.63;;;3.22;;
4636;SDS011;2331;48.806;9.140;2023-09-07T04:19:08;5.78;;;3.70;;
4636;SDS011;2331;48.806;9.140;2023-09-07T04:21:35;5.05;;;3.30;;
4636;SDS011;2331;48.806;9.140;2023-09-07T04:24:02;3.88;;;2.88;;
4636;SDS011;2331;48.806;9.140;2023-09-07T04:26:29;4.93;;;3.08;;
4636;SDS011;2331;48.806;9.140;2023-09-07T04:28:56;4.93;;;3.30;;
4636;SDS011;2331;48.806;9.140;2023-09-07T04:31:24;8.15;;;3.50;;
4636;SDS011;2331;48.806;9.140;2023-09-07T04:33:52;6.82;;;3.20;;
4636;SDS011;2331;48.806;9.140;2023-09-07T04:36:19;6.22;;;3.65;;
4636;SDS011;2331;48.806;9.140;2023-09-07T04:38:46;6.07;;;3.53;;
4636;SDS011;2331;48.806;9.140;2023-09-07T04:41:13;5.55;;;3.15;;
4636;SDS011;2331;48.806;9.140;2023-09-07T04:43:41;7.20;;;3.58;;
4636;SDS011;2331;48.806;9.140;2023-09-07T04:46:09;6.13;;;3.53;;
4636;SDS011;2331;48.806;9.140;2023-09-07T04:48:37;4.13;;;3.10;;
4636;SDS011;2331;48.806;9.140;2023-09-07T04:51:05;5.07;;;3.53;;
4636;SDS011;2331;48.806;9.140;2023-09-07T04:53:34;5.15;;;3.58;;
4636;SDS011;2331;48.806;9.140;2023-09-07T04:56:02;10.43;;;4.53;;
4636;SDS011;2331;48.806;9.140;2023-09-07T04:58:30;9.35;;;4.45;;
4636;SDS011;2331;48.806;9.140;2023-09-07T05:01:01;5.25;;;3.53;;
4636;SDS011;2331;48.806;9.140;2023-09-07T05:03:28;4.72;;;3.35;;
4636;SDS011;2331;48.806;9.140;2023-09-07T05:05:56;5.85;;;3.88;;
4636;SDS011;2331;48.806;9.140;2023-09-07T05:08:23;6.95;;;3.80;;
4636;SDS011;2331;48.806;9.140;2023-09-07T05:10:54;4.13;;;3.30;;
4636;SDS011;2331;48.806;9.140;2023-09-07T05:13:22;9.68;;;4.60;;
4636;SDS011;2331;48.806;9.140;2023-09-07T05:15:49;5.97;;;3.55;;
4636;SDS011;2331;48.806;9.140;2023-09-07T05:18:16;4.68;;;3.72;;
4636;SDS011;2331;48.806;9.140;2023-09-07T05:20:44;6.45;;;3.72;;
4636;SDS011;2331;48.806;9.140;2023-09-07T05:23:12;5.90;;;3.75;;
4636;SDS011;2331;48.806;9.140;2023-09-07T05:25:43;5.80;;;3.75;;
4636;SDS011;2331;48.806;9.140;2023-09-07T05:28:12;7.75;;;3.88;;
4636;SDS011;2331;48.806;9.140;2023-09-07T05:30:39;7.53;;;3.80;;
4636;SDS011;2331;48.806;9.140;2023-09-07T05:33:06;5.38;;;3.65;;
4636;SDS011;2331;48.806;9.140;2023-09-07T05:35:33;5.20;;;3.65;;
4636;SDS011;2331;48.806;9.140;2023-09-07T05:38:00;4.68;;;3.40;;
4636;SDS011;2331;48.806;9.140;2023-09-07T05:40:28;5.90;;;3.92;;
4636;SDS011;2331;48.806;9.140;2023-09-07T05:42:55;6.25;;;3.72;;
4636;SDS011;2331;48.806;9.140;2023-09-07T05:45:22;6.60;;;4.47;;
4636;SDS011;2331;48.806;9.140;2023-09-07T05:47:48;8.10;;;4.45;;
4636;SDS011;2331;48.806;9.140;2023-09-07T05:50:15;5.25;;;3.60;;
4636;SDS011;2331;48.806;9.140;2023-09-07T05:52:42;6.35;;;3.95;;
4636;SDS011;2331;48.806;9.140;2023-09-07T05:55:09;6.60;;;4.10;;
4636;SDS011;2331;48.806;9.140;2023-09-07T05:57:37;7.30;;;4.63;;
4636;SDS011;2331;48.806;9.140;2023-09-07T06:00:04;7.97;;;5.00;;
4636;SDS011;2331;48.806;9.140;2023-09-07T06:02:32;8.52;;;4.53;;
4636;SDS011;2331;48.806;9.140;2023-09-07T06:04:59;10.05;;;5.38;;
4636;SDS011;2331;48.806;9.140;2023-09-07T06:07:26;8.20;;;4.45;;
4636;SDS011;2331;48.806;9.140;2023-09-07T06:09:53;7.57;;;5.00;;
4636;SDS011;2331;48.806;9.140;2023-09-07T06:12:20;10.68;;;5.20;;
4636;SDS011;2331;48.806;9.140;2023-09-07T06:14:48;11.68;;;5.15;;
4636;SDS011;2331;48.806;9.140;2023-09-07T06:17:14;8.25;;;5.45;;
4636;SDS011;2331;48.806;9.140;2023-09-07T06:19:41;11.52;;;5.95;;
4636;SDS011;2331;48.806;9.140;2023-09-07T06:22:08;7.55;;;4.47;;
4636;SDS011;2331;48.806;9.140;2023-09-07T06:24:35;8.90;;;5.40;;
4636;SDS011;2331;48.806;9.140;2023-09-07T06:27:02;7.68;;;5.80;;
4636;SDS011;2331;48.806;9.140;2023-09-07T06:29:29;8.48;;;5.70;;
4636;SDS011;2331;48.806;9.140;2023-09-07T06:31:57;8.88;;;5.97;;
4636;SDS011;2331;48.806;9.140;2023-09-07T06:34:24;8.93;;;5.82;;
4636;SDS011;2331;48.806;9.140;2023-09-07T06:36:51;10.07;;;5.97;;
4636;SDS011;2331;48.806;9.140;2023-09-07T06:39:18;9.30;;;6.07;;
4636;SDS011;2331;48.806;9.140;2023-09-07T06:41:45;8.93;;;6.22;;
4636;SDS011;2331;48.806;9.140;2023-09-07T06:44:12;7.78;;;5.50;;
4636;SDS011;2331;48.806;9.140;2023-09-07T06:46:40;11.73;;;6.47;;
4636;SDS011;2331;48.806;9.140;2023-09-07T06:49:08;8.40;;;5.60;;
4636;SDS011;2331;48.806;9.140;2023-09-07T06:51:35;10.00;;;6.28;;
4636;SDS011;2331;48.806;9.140;2023-09-07T06:54:02;10.77;;;6.15;;
4636;SDS011;2331;48.806;9.140;2023-09-07T06:56:29;10.13;;;6.63;;
4636;SDS011;2331;48.806;9.140;2023-09-07T06:58:58;8.82;;;5.95;;
4636;SDS011;2331;48.806;9.140;2023-09-07T07:01:25;10.65;;;6.53;;
4636;SDS011;2331;48.806;9.140;2023-09-07T07:03:51;10.43;;;5.90;;
4636;SDS011;2331;48.806;9.140;2023-09-07T07:06:20;10.10;;;6.35;;
4636;SDS011;2331;48.806;9.140;2023-09-07T07:08:47;10.15;;;7.38;;
4636;SDS011;2331;48.806;9.140;2023-09-07T07:11:14;10.80;;;6.97;;
4636;SDS011;2331;48.806;9.140;2023-09-07T07:13:41;8.93;;;6.05;;
4636;SDS011;2331;48.806;9.140;2023-09-07T07:16:07;10.00;;;6.75;;
4636;SDS011;2331;48.806;9.140;2023-09-07T07:18:34;11.75;;;7.30;;
4636;SDS011;2331;48.806;9.140;2023-09-07T07:21:01;11.43;;;6.45;;
4636;SDS011;2331;48.806;9.140;2023-09-07T07:23:29;14.45;;;7.55;;
4636;SDS011;2331;48.806;9.140;2023-09-07T07:25:56;9.68;;;6.50;;
4636;SDS011;2331;48.806;9.140;2023-09-07T07:28:23;9.20;;;5.90;;
4636;SDS011;2331;48.806;9.140;2023-09-07T07:30:50;9.77;;;6.55;;
4636;SDS011;2331;48.806;9.140;2023-09-07T07:33:17;13.65;;;6.35;;
4636;SDS011;2331;48.806;9.140;2023-09-07T07:35:44;12.90;;;6.22;;
4636;SDS011;2331;48.806;9.140;2023-09-07T07:38:11;11.63;;;7.72;;
4636;SDS011;2331;48.806;9.140;2023-09-07T07:40:40;18.00;;;10.20;;
4636;SDS011;2331;48.806;9.140;2023-09-07T07:43:07;18.30;;;9.50;;
4636;SDS011;2331;48.806;9.140;2023-09-07T07:45:35;14.25;;;7.97;;
4636;SDS011;2331;48.806;9.140;2023-09-07T07:48:03;11.20;;;6.45;;
4636;SDS011;2331;48.806;9.140;2023-09-07T07:50:35;10.73;;;6.88;;
4636;SDS011;2331;48.806;9.140;2023-09-07T07:53:03;9.90;;;6.03;;
4636;SDS011;2331;48.806;9.140;2023-09-07T07:55:33;11.50;;;6.63;;
4636;SDS011;2331;48.806;9.140;2023-09-07T07:58:04;8.02;;;6.35;;
4636;SDS011;2331;48.806;9.140;2023-09-07T08:00:32;10.30;;;5.85;;
4636;SDS011;2331;48.806;9.140;2023-09-07T08:02:59;15.30;;;5.70;;
4636;SDS011;2331;48.806;9.140;2023-09-07T08:05:27;8.25;;;6.15;;
4636;SDS011;2331;48.806;9.140;2023-09-07T08:07:54;10.43;;;5.87;;
4636;SDS011;2331;48.806;9.140;2023-09-07T08:10:20;8.73;;;6.40;;
4636;SDS011;2331;48.806;9.140;2023-09-07T08:12:47;7.95;;;5.35;;
4636;SDS011;2331;48.806;9.140;2023-09-07T08:15:15;8.93;;;6.22;;
4636;SDS011;2331;48.806;9.140;2023-09-07T08:17:45;8.67;;;6.47;;
4636;SDS011;2331;48.806;9.140;2023-09-07T08:20:15;12.37;;;6.57;;
4636;SDS011;2331;48.806;9.140;2023-09-07T08:22:42;8.53;;;6.53;;
4636;SDS011;2331;48.806;9.140;2023-09-07T08:25:10;10.25;;;5.88;;
4636;SDS011;2331;48.806;9.140;2023-09-07T08:27:38;8.50;;;5.70;;
4636;SDS011;2331;48.806;9.140;2023-09-07T08:30:07;17.42;;;6.13;;
4636;SDS011;2331;48.806;9.140;2023-09-07T08:32:36;9.13;;;6.38;;
4636;SDS011;2331;48.806;9.140;2023-09-07T08:35:03;10.37;;;6.80;;
4636;SDS011;2331;48.806;9.140;2023-09-07T08:37:32;9.10;;;6.55;;
4636;SDS011;2331;48.806;9.140;2023-09-07T08:39:59;9.10;;;6.10;;
4636;SDS011;2331;48.806;9.140;2023-09-07T08:42:27;9.40;;;6.50;;
4636;SDS011;2331;48.806;9.140;2023-09-07T08:44:54;10.00;;;6.07;;
4636;SDS011;2331;48.806;9.140;2023-09-07T08:47:23;9.47;;;6.20;;
4636;SDS011;2331;48.806;9.140;2023-09-07T08:49:54;10.30;;;6.43;;
4636;SDS011;2331;48.806;9.140;2023-09-07T08:52:22;8.90;;;7.07;;
4636;SDS011;2331;48.806;9.140;2023-09-07T08:54:48;10.07;;;6.40;;
4636;SDS011;2331;48.806;9.140;2023-09-07T08:57:17;8.83;;;6.00;;
4636;SDS011;2331;48.806;9.140;2023-09-07T08:59:46;8.27;;;6.20;;
4636;SDS011;2331;48.806;9.140;2023-09-07T09:02:14;9.37;;;6.60;;
4636;SDS011;2331;48.806;9.140;2023-09-07T09:04:41;10.83;;;6.37;;
4636;SDS011;2331;48.806;9.140;2023-09-07T09:07:09;14.27;;;7.10;;
4636;SDS011;2331;48.806;9.140;2023-09-07T09:09:36;12.20;;;6.70;;
4636;SDS011;2331;48.806;9.140;2023-09-07T09:12:06;8.73;;;6.00;;
4636;SDS011;2331;48.806;9.140;2023-09-07T09:14:34;11.13;;;8.30;;
4636;SDS011;2331;48.806;9.140;2023-09-07T09:17:00;9.80;;;6.50;;
4636;SDS011;2331;48.806;9.140;2023-09-07T09:19:31;11.20;;;6.40;;
4636;SDS011;2331;48.806;9.140;2023-09-07T09:21:58;11.13;;;7.47;;
4636;SDS011;2331;48.806;9.140;2023-09-07T09:24:26;10.23;;;6.80;;
4636;SDS011;2331;48.806;9.140;2023-09-07T09:26:53;9.13;;;6.50;;
4636;SDS011;2331;48.806;9.140;2023-09-07T09:29:21;11.77;;;6.47;;
4636;SDS011;2331;48.806;9.140;2023-09-07T09:31:49;12.97;;;6.97;;
4636;SDS011;2331;48.806;9.140;2023-09-07T09:34:17;11.07;;;6.70;;
4636;SDS011;2331;48.806;9.140;2023-09-07T09:36:45;7.93;;;6.20;;
4636;SDS011;2331;48.806;9.140;2023-09-07T09:39:21;11.97;;;6.80;;
4636;SDS011;2331;48.806;9.140;2023-09-07T09:41:50;10.40;;;7.23;;
4636;SDS011;2331;48.806;9.140;2023-09-07T09:44:17;9.53;;;6.43;;
4636;SDS011;2331;48.806;9.140;2023-09-07T09:46:47;8.10;;;6.10;;
4636;SDS011;2331;48.806;9.140;2023-09-07T09:49:15;10.63;;;6.10;;
4636;SDS011;2331;48.806;9.140;2023-09-07T09:51:44;11.93;;;6.70;;
4636;SDS011;2331;48.806;9.140;2023-09-07T09:54:12;9.13;;;6.43;;
4636;SDS011;2331;48.806;9.140;2023-09-07T09:56:39;12.10;;;6.97;;
4636;SDS011;2331;48.806;9.140;2023-09-07T09:59:08;15.83;;;7.37;;
4636;SDS011;2331;48.806;9.140;2023-09-07T10:01:43;10.00;;;6.90;;
4636;SDS011;2331;48.806;9.140;2023-09-07T10:04:11;8.17;;;6.00;;
4636;SDS011;2331;48.806;9.140;2023-09-07T10:06:49;10.20;;;6.40;;
4636;SDS011;2331;48.806;9.140;2023-09-07T10:09:17;7.90;;;6.37;;
4636;SDS011;2331;48.806;9.140;2023-09-07T10:11:50;10.30;;;6.50;;
4636;SDS011;2331;48.806;9.140;2023-09-07T10:14:19;12.20;;;6.20;;
4636;SDS011;2331;48.806;9.140;2023-09-07T10:16:46;9.23;;;6.40;;
4636;SDS011;2331;48.806;9.140;2023-09-07T10:19:15;15.23;;;6.53;;
4636;SDS011;2331;48.806;9.140;2023-09-07T10:21:42;12.50;;;6.77;;
4636;SDS011;2331;48.806;9.140;2023-09-07T10:24:09;8.20;;;5.87;;
4636;SDS011;2331;48.806;9.140;2023-09-07T10:26:36;12.73;;;6.50;;
4636;SDS011;2331;48.806;9.140;2023-09-07T10:29:03;10.70;;;6.40;;
4636;SDS011;2331;48.806;9.140;2023-09-07T10:31:32;10.40;;;6.60;;
4636;SDS011;2331;48.806;9.140;2023-09-07T10:34:08;10.73;;;6.30;;
4636;SDS011;2331;48.806;9.140;2023-09-07T10:36:37;8.30;;;6.30;;
4636;SDS011;2331;48.806;9.140;2023-09-07T10:39:04;10.10;;;6.33;;
4636;SDS011;2331;48.806;9.140;2023-09-07T10:41:40;9.63;;;6.27;;
4636;SDS011;2331;48.806;9.140;2023-09-07T10:44:07;10.87;;;6.40;;
4636;SDS011;2331;48.806;9.140;2023-09-07T10:46:37;8.23;;;5.50;;
4636;SDS011;2331;48.806;9.140;2023-09-07T10:49:06;9.57;;;6.43;;
4636;SDS011;2331;48.806;9.140;2023-09-07T10:51:39;8.73;;;6.10;;
4636;SDS011;2331;48.806;9.140;2023-09-07T10:54:13;7.93;;;6.30;;
4636;SDS011;2331;48.806;9.140;2023-09-07T10:56:43;8.73;;;5.83;;
4636;SDS011;2331;48.806;9.140;2023-09-07T10:59:10;10.23;;;5.80;;
4636;SDS011;2331;48.806;9.140;2023-09-07T11:01:39;9.13;;;6.73;;
4636;SDS011;2331;48.806;9.140;2023-09-07T11:04:06;9.50;;;5.70;;
4636;SDS011;2331;48.806;9.140;2023-09-07T11:06:36;9.63;;;6.43;;
4636;SDS011;2331;48.806;9.140;2023-09-07T11:09:03;11.40;;;7.00;;
4636;SDS011;2331;48.806;9.140;2023-09-07T11:11:33;9.77;;;6.23;;
4636;SDS011;2331;48.806;9.140;2023-09-07T11:14:01;9.50;;;5.70;;
4636;SDS011;2331;48.806;9.140;2023-09-07T11:16:28;7.70;;;5.80;;
4636;SDS011;2331;48.806;9.140;2023-09-07T11:18:57;8.07;;;5.97;;
4636;SDS011;2331;48.806;9.140;2023-09-07T11:21:29;10.27;;;5.70;;
4636;SDS011;2331;48.806;9.140;2023-09-07T11:23:57;14.93;;;6.63;;
4636;SDS011;2331;48.806;9.140;2023-09-07T11:26:24;10.07;;;6.37;;
4636;SDS011;2331;48.806;9.140;2023-09-07T11:28:51;11.43;;;6.10;;
4636;SDS011;2331;48.806;9.140;2023-09-07T11:31:18;8.80;;;6.37;;
4636;SDS011;2331;48.806;9.140;2023-09-07T11:33:46;9.33;;;5.93;;
4636;SDS011;2331;48.806;9.140;2023-09-07T11:36:14;12.73;;;5.93;;
4636;SDS011;2331;48.806;9.140;2023-09-07T11:38:42;7.37;;;5.60;;
4636;SDS011;2331;48.806;9.140;2023-09-07T11:41:10;8.83;;;6.23;;
4636;SDS011;2331;48.806;9.140;2023-09-07T11:43:37;12.03;;;6.17;;
4636;SDS011;2331;48.806;9.140;2023-09-07T11:46:04;9.60;;;6.30;;
4636;SDS011;2331;48.806;9.140;2023-09-07T11:48:31;10.33;;;5.93;;
4636;SDS011;2331;48.806;9.140;2023-09-07T11:50:59;13.57;;;6.80;;
4636;SDS011;2331;48.806;9.140;2023-09-07T11:53:27;10.43;;;5.90;;
4636;SDS011;2331;48.806;9.140;2023-09-07T11:55:55;9.10;;;5.60;;
4636;SDS011;2331;48.806;9.140;2023-09-07T11:58:22;8.30;;;5.53;;
4636;SDS011;2331;48.806;9.140;2023-09-07T12:00:51;11.10;;;6.00;;
4636;SDS011;2331;48.806;9.140;2023-09-07T12:03:18;7.20;;;4.70;;
4636;SDS011;2331;48.806;9.140;2023-09-07T12:05:45;9.07;;;6.20;;
4636;SDS011;2331;48.806;9.140;2023-09-07T12:08:12;8.93;;;5.40;;
4636;SDS011;2331;48.806;9.140;2023-09-07T12:10:40;7.27;;;5.00;;
4636;SDS011;2331;48.806;9.140;2023-09-07T12:13:07;7.20;;;4.97;;
4636;SDS011;2331;48.806;9.140;2023-09-07T12:15:34;7.57;;;5.80;;
4636;SDS011;2331;48.806;9.140;2023-09-07T12:18:01;6.97;;;5.23;;
4636;SDS011;2331;48.806;9.140;2023-09-07T12:20:28;6.43;;;4.90;;
4636;SDS011;2331;48.806;9.140;2023-09-07T12:22:55;7.23;;;5.13;;
4636;SDS011;2331;48.806;9.140;2023-09-07T12:25:22;10.03;;;5.70;;
4636;SDS011;2331;48.806;9.140;2023-09-07T12:27:50;6.50;;;4.70;;
4636;SDS011;2331;48.806;9.140;2023-09-07T12:30:17;7.50;;;4.80;;
4636;SDS011;2331;48.806;9.140;2023-09-07T12:32:45;9.63;;;5.17;;
4636;SDS011;2331;48.806;9.140;2023-09-07T12:35:12;7.77;;;4.63;;
4636;SDS011;2331;48.806;9.140;2023-09-07T12:37:40;6.90;;;5.03;;
4636;SDS011;2331;48.806;9.140;2023-09-07T12:40:07;7.70;;;5.00;;
4636;SDS011;2331;48.806;9.140;2023-09-07T12:42:36;6.67;;;4.53;;
4636;SDS011;2331;48.806;9.140;2023-09-07T12:45:06;8.57;;;4.93;;
4636;SDS011;2331;48.806;9.140;2023-09-07T12:47:34;7.83;;;4.80;;
4636;SDS011;2331;48.806;9.140;2023-09-07T12:50:01;5.67;;;4.40;;
4636;SDS011;2331;48.806;9.140;2023-09-07T12:52:29;6.47;;;4.83;;
4636;SDS011;2331;48.806;9.140;2023-09-07T12:54:56;7.37;;;4.10;;
4636;SDS011;2331;48.806;9.140;2023-09-07T12:57:23;9.87;;;4.20;;
4636;SDS011;2331;48.806;9.140;2023-09-07T12:59:50;7.57;;;4.63;;
4636;SDS011;2331;48.806;9.140;2023-09-07T13:02:18;6.37;;;4.60;;
4636;SDS011;2331;48.806;9.140;2023-09-07T13:04:45;10.33;;;4.47;;
4636;SDS011;2331;48.806;9.140;2023-09-07T13:07:12;9.00;;;4.17;;
4636;SDS011;2331;48.806;9.140;2023-09-07T13:09:39;6.63;;;3.97;;
4636;SDS011;2331;48.806;9.140;2023-09-07T13:12:06;6.53;;;4.00;;
4636;SDS011;2331;48.806;9.140;2023-09-07T13:14:33;5.13;;;4.07;;
4636;SDS011;2331;48.806;9.140;2023-09-07T13:17:00;6.40;;;4.53;;
4636;SDS011;2331;48.806;9.140;2023-09-07T13:19:28;5.20;;;4.07;;
4636;SDS011;2331;48.806;9.140;2023-09-07T13:21:55;10.00;;;4.43;;
4636;SDS011;2331;48.806;9.140;2023-09-07T13:24:22;10.90;;;4.67;;
4636;SDS011;2331;48.806;9.140;2023-09-07T13:26:50;7.33;;;4.40;;
4636;SDS011;2331;48.806;9.140;2023-09-07T13:29:17;5.67;;;4.13;;
4636;SDS011;2331;48.806;9.140;2023-09-07T13:31:44;8.00;;;4.20;;
4636;SDS011;2331;48.806;9.140;2023-09-07T13:34:10;5.40;;;4.30;;
4636;SDS011;2331;48.806;9.140;2023-09-07T13:36:39;5.20;;;4.00;;
4636;SDS011;2331;48.806;9.140;2023-09-07T13:39:06;8.43;;;4.50;;
4636;SDS011;2331;48.806;9.140;2023-09-07T13:41:33;5.57;;;4.37;;
4636;SDS011;2331;48.806;9.140;2023-09-07T13:44:00;7.90;;;3.97;;
4636;SDS011;2331;48.806;9.140;2023-09-07T13:46:27;6.80;;;4.07;;
4636;SDS011;2331;48.806;9.140;2023-09-07T13:48:54;6.10;;;4.13;;
4636;SDS011;2331;48.806;9.140;2023-09-07T13:51:22;7.10;;;4.23;;
4636;SDS011;2331;48.806;9.140;2023-09-07T13:53:50;7.30;;;4.33;;
4636;SDS011;2331;48.806;9.140;2023-09-07T13:56:18;6.80;;;4.17;;
4636;SDS011;2331;48.806;9.140;2023-09-07T13:58:44;9.60;;;4.33;;
4636;SDS011;2331;48.806;9.140;2023-09-07T14:01:12;7.03;;;4.40;;
4636;SDS011;2331;48.806;9.140;2023-09-07T14:03:39;7.87;;;4.00;;
4636;SDS011;2331;48.806;9.140;2023-09-07T14:06:06;7.50;;;4.20;;
4636;SDS011;2331;48.806;9.140;2023-09-07T14:08:33;7.00;;;4.30;;
4636;SDS011;2331;48.806;9.140;2023-09-07T14:11:01;5.90;;;4.10;;
4636;SDS011;2331;48.806;9.140;2023-09-07T14:13:28;6.47;;;4.30;;
4636;SDS011;2331;48.806;9.140;2023-09-07T14:15:54;5.93;;;4.10;;
4636;SDS011;2331;48.806;9.140;2023-09-07T14:18:21;9.37;;;4.07;;
4636;SDS011;2331;48.806;9.140;2023-09-07T14:20:48;7.07;;;4.33;;
4636;SDS011;2331;48.806;9.140;2023-09-07T14:23:15;7.50;;;4.57;;
4636;SDS011;2331;48.806;9.140;2023-09-07T14:25:42;6.17;;;4.30;;
4636;SDS011;2331;48.806;9.140;2023-09-07T14:28:11;7.50;;;3.77;;
4636;SDS011;2331;48.806;9.140;2023-09-07T14:30:38;6.70;;;4.10;;
4636;SDS011;2331;48.806;9.140;2023-09-07T14:33:05;6.50;;;3.73;;
4636;SDS011;2331;48.806;9.140;2023-09-07T14:35:32;6.10;;;4.50;;
4636;SDS011;2331;48.806;9.140;2023-09-07T14:37:59;6.20;;;4.20;;
4636;SDS011;2331;48.806;9.140;2023-09-07T14:40:25;6.03;;;4.40;;
4636;SDS011;2331;48.806;9.140;2023-09-07T14:42:52;5.13;;;3.97;;
4636;SDS011;2331;48.806;9.140;2023-09-07T14:45:23;7.73;;;4.57;;
4636;SDS011;2331;48.806;9.140;2023-09-07T14:47:50;7.37;;;4.40;;
4636;SDS011;2331;48.806;9.140;2023-09-07T14:50:17;6.80;;;4.03;;
4636;SDS011;2331;48.806;9.140;2023-09-07T14:52:45;6.53;;;4.20;;
4636;SDS011;2331;48.806;9.140;2023-09-07T14:55:12;6.57;;;4.23;;
4636;SDS011;2331;48.806;9.140;2023-09-07T14:57:39;11.90;;;4.40;;
4636;SDS011;2331;48.806;9.140;2023-09-07T15:00:06;5.47;;;4.00;;
4636;SDS011;2331;48.806;9.140;2023-09-07T15:02:36;7.83;;;4.10;;
4636;SDS011;2331;48.806;9.140;2023-09-07T15:05:02;6.00;;;4.03;;
4636;SDS011;2331;48.806;9.140;2023-09-07T15:07:30;7.70;;;4.37;;
4636;SDS011;2331;48.806;9.140;2023-09-07T15:09:57;6.03;;;3.80;;
4636;SDS011;2331;48.806;9.140;2023-09-07T15:12:24;8.27;;;4.00;;
4636;SDS011;2331;48.806;9.140;2023-09-07T15:14:51;7.63;;;3.60;;